createdAt,value
2023-03-18T00:12:02.686Z,10.40
2023-03-18T00:27:03.292Z,10.30
2023-03-18T00:42:03.866Z,8.30
2023-03-18T00:57:05.190Z,10.60
2023-03-18T01:12:06.517Z,8.90
2023-03-18T01:27:06.674Z,8.80
2023-03-18T01:42:07.367Z,9.90
2023-03-18T01:57:07.909Z,9.30
2023-03-18T02:12:08.445Z,10.10
2023-03-18T02:27:09.047Z,6.30
2023-03-18T02:42:09.659Z,7.70
2023-03-18T02:57:10.275Z,11.60
2023-03-18T03:12:10.855Z,9.00
2023-03-18T03:27:11.436Z,7.80
2023-03-18T03:42:12.471Z,12.00
2023-03-18T03:57:13.278Z,7.00
2023-03-18T04:12:14.616Z,5.90
2023-03-18T04:27:14.810Z,7.40
2023-03-18T04:42:15.430Z,15.20
2023-03-18T04:57:16.059Z,7.90
2023-03-18T05:12:16.612Z,9.10
2023-03-18T05:27:17.279Z,11.50
2023-03-18T05:42:17.456Z,8.10
2023-03-18T05:57:18.454Z,9.20
2023-03-18T06:12:19.015Z,6.70
2023-03-18T06:27:19.182Z,10.20
2023-03-18T06:42:19.763Z,9.70
2023-03-18T06:57:20.505Z,10.90
2023-03-18T07:12:21.447Z,8.80
2023-03-18T07:27:22.043Z,8.30
2023-03-18T07:42:22.203Z,8.10
2023-03-18T07:57:23.309Z,12.40
2023-03-18T08:12:24.389Z,9.80
2023-03-18T08:27:25.421Z,7.90
2023-03-18T08:42:25.985Z,9.50
2023-03-18T08:57:26.200Z,8.00
2023-03-18T09:12:26.902Z,5.80
2023-03-18T09:27:27.497Z,8.30
2023-03-18T09:42:28.526Z,10.20
2023-03-18T09:57:30.084Z,6.40
2023-03-18T10:12:29.673Z,7.70
2023-03-18T10:27:30.811Z,5.60
2023-03-18T10:42:31.345Z,8.10
2023-03-18T10:57:32.450Z,8.70
2023-03-18T11:12:33.534Z,4.00
2023-03-18T11:27:34.137Z,3.30
2023-03-18T11:42:34.745Z,7.40
2023-03-18T11:57:34.838Z,7.60
2023-03-18T12:12:35.806Z,6.50
2023-03-18T12:27:36.052Z,7.80
2023-03-18T12:42:36.595Z,5.80
2023-03-18T12:57:37.177Z,6.80
2023-03-18T13:12:37.730Z,5.70
2023-03-18T13:27:38.327Z,6.40
2023-03-18T13:42:38.420Z,15.20
2023-03-18T13:57:39.059Z,3.90
2023-03-18T14:12:39.574Z,4.30
2023-03-18T14:27:39.725Z,3.40
2023-03-18T14:42:40.316Z,5.10
2023-03-18T14:57:41.439Z,3.70
2023-03-18T15:12:43.107Z,4.70
2023-03-18T15:27:43.009Z,6.70
2023-03-18T15:42:43.193Z,48.10
2023-03-18T15:57:43.789Z,9.80
2023-03-18T16:12:43.970Z,5.70
2023-03-18T16:27:44.552Z,21.20
2023-03-18T16:42:44.631Z,13.20
2023-03-18T16:57:44.989Z,23.80
2023-03-18T17:12:45.756Z,16.10
2023-03-18T17:27:45.618Z,17.20
2023-03-18T17:42:46.727Z,30.60
2023-03-18T17:57:46.976Z,15.30
2023-03-18T18:12:48.547Z,19.10
2023-03-18T18:27:50.604Z,19.40
2023-03-18T18:42:51.326Z,21.40
2023-03-18T18:57:52.245Z,66.60
2023-03-18T19:12:52.463Z,49.00
2023-03-18T19:27:53.197Z,48.90
2023-03-18T19:42:53.058Z,121.80
2023-03-18T19:57:54.004Z,109.10
2023-03-18T20:12:54.835Z,161.20
2023-03-18T20:27:56.277Z,115.00
2023-03-18T20:42:56.954Z,125.30
2023-03-18T20:57:57.232Z,91.20
2023-03-18T21:12:58.010Z,94.00
2023-03-18T21:27:58.208Z,92.30
2023-03-18T21:42:58.774Z,99.10
2023-03-18T21:57:59.371Z,110.60
2023-03-18T22:12:59.476Z,106.60
2023-03-18T22:28:00.146Z,108.50
2023-03-18T22:43:00.679Z,105.20
2023-03-18T22:58:01.351Z,99.40
2023-03-18T23:13:01.758Z,100.90
2023-03-18T23:28:01.961Z,88.60
2023-03-18T23:43:02.566Z,72.90
2023-03-18T23:58:03.615Z,77.30
